Time;durP1;ratioP1;P1;durP2;ratioP2;P2;SDS_P1;SDS_P2;PMS_P1;PMS_P2;Temp;Humidity;BMP_temperature;BMP_pressure;BME280_temperature;BME280_humidity;BME280_pressure;Samples;Min_cycle;Max_cycle;Signal;HPM_P1;HPM_P2
2024/03/10 00:00:08;;;;;;;10.10;6.50;;;;;;;;;;692935;28;2219;-63
2024/03/10 00:00:31;;;;;;;10.98;6.88;;;;;;;;;;695336;28;877;-63
2024/03/10 00:00:52;;;;;;;10.32;6.75;;;;;;;;;;699139;28;820;-63
2024/03/10 00:01:12;;;;;;;10.40;6.43;;;;;;;;;;696307;28;4519;-63
2024/03/10 00:01:33;;;;;;;10.98;6.70;;;;;;;;;;699916;28;1018;-64
2024/03/10 00:01:56;;;;;;;10.77;6.40;;;;;;;;;;700757;28;924;-63
2024/03/10 00:02:16;;;;;;;9.05;6.05;;;;;;;;;;700742;28;946;-63
2024/03/10 00:02:37;;;;;;;9.23;6.23;;;;;;;;;;700914;28;931;-63
2024/03/10 00:02:58;;;;;;;10.13;6.75;;;;;;;;;;699347;28;1006;-63
2024/03/10 00:03:18;;;;;;;10.07;6.30;;;;;;;;;;699553;28;927;-62
2024/03/10 00:03:40;;;;;;;9.63;6.38;;;;;;;;;;698848;28;871;-64
2024/03/10 00:04:01;;;;;;;10.18;6.32;;;;;;;;;;697745;28;4329;-64
2024/03/10 00:04:21;;;;;;;9.95;6.28;;;;;;;;;;699024;28;911;-63
2024/03/10 00:04:42;;;;;;;10.13;6.60;;;;;;;;;;699335;28;1971;-64
2024/03/10 00:05:02;;;;;;;10.15;6.50;;;;;;;;;;698526;28;1920;-64
2024/03/10 00:05:23;;;;;;;9.93;6.37;;;;;;;;;;699447;28;900;-62
2024/03/10 00:05:44;;;;;;;9.93;6.80;;;;;;;;;;699773;28;973;-63
2024/03/10 00:06:04;;;;;;;9.80;6.45;;;;;;;;;;698179;28;2759;-63
2024/03/10 00:06:24;;;;;;;9.60;6.60;;;;;;;;;;699561;28;1549;-62
2024/03/10 00:06:45;;;;;;;9.60;6.50;;;;;;;;;;700755;28;796;-64
2024/03/10 00:07:05;;;;;;;9.75;6.57;;;;;;;;;;697290;28;4349;-63
2024/03/10 00:07:25;;;;;;;10.63;6.47;;;;;;;;;;699249;28;727;-64
2024/03/10 00:07:46;;;;;;;10.90;6.40;;;;;;;;;;700347;28;801;-63
2024/03/10 00:08:06;;;;;;;9.63;6.27;;;;;;;;;;698782;28;2506;-64
2024/03/10 00:08:27;;;;;;;9.98;6.63;;;;;;;;;;700571;28;971;-63
2024/03/10 00:08:47;;;;;;;9.53;6.43;;;;;;;;;;700859;28;864;-64
2024/03/10 00:09:08;;;;;;;9.63;6.43;;;;;;;;;;699051;28;1173;-63
2024/03/10 00:09:30;;;;;;;9.77;6.65;;;;;;;;;;700705;28;817;-63
2024/03/10 00:09:50;;;;;;;9.88;6.40;;;;;;;;;;696494;28;1334;-64
2024/03/10 00:10:12;;;;;;;10.37;6.50;;;;;;;;;;696261;28;4507;-62
2024/03/10 00:10:37;;;;;;;10.57;6.30;;;;;;;;;;700996;28;1025;-63
2024/03/10 00:10:57;;;;;;;9.85;6.60;;;;;;;;;;697073;28;1983;-63
2024/03/10 00:11:18;;;;;;;10.83;6.60;;;;;;;;;;698057;28;967;-62
2024/03/10 00:11:38;;;;;;;10.47;6.60;;;;;;;;;;698721;28;1373;-62
2024/03/10 00:11:58;;;;;;;9.88;6.60;;;;;;;;;;699581;28;1818;-63
2024/03/10 00:12:18;;;;;;;10.97;6.83;;;;;;;;;;697923;28;920;-64
2024/03/10 00:12:39;;;;;;;10.60;6.43;;;;;;;;;;698172;28;845;-62
2024/03/10 00:12:59;;;;;;;10.18;6.50;;;;;;;;;;699935;28;2456;-64
2024/03/10 00:13:20;;;;;;;8.90;6.00;;;;;;;;;;701819;28;4678;-63
2024/03/10 00:13:41;;;;;;;10.02;6.53;;;;;;;;;;701299;28;963;-64
2024/03/10 00:14:01;;;;;;;10.45;6.43;;;;;;;;;;700650;28;1712;-63
2024/03/10 00:14:23;;;;;;;10.85;7.05;;;;;;;;;;701541;28;963;-63
2024/03/10 00:14:43;;;;;;;9.77;6.60;;;;;;;;;;702082;28;1427;-64
2024/03/10 00:15:06;;;;;;;9.70;6.40;;;;;;;;;;700061;28;1460;-61
2024/03/10 00:15:27;;;;;;;9.50;6.20;;;;;;;;;;702039;28;884;-63
2024/03/10 00:15:47;;;;;;;9.82;6.45;;;;;;;;;;701858;28;916;-63
2024/03/10 00:16:11;;;;;;;10.00;6.30;;;;;;;;;;700724;28;4348;-64
2024/03/10 00:16:31;;;;;;;9.43;6.32;;;;;;;;;;702121;28;1195;-62
2024/03/10 00:16:51;;;;;;;13.15;7.28;;;;;;;;;;702679;28;956;-64
2024/03/10 00:17:12;;;;;;;10.57;6.70;;;;;;;;;;701030;28;2518;-64
2024/03/10 00:17:32;;;;;;;11.30;6.60;;;;;;;;;;701192;28;923;-64
2024/03/10 00:17:53;;;;;;;10.68;6.80;;;;;;;;;;701363;28;908;-63
2024/03/10 00:18:13;;;;;;;10.00;6.70;;;;;;;;;;701598;28;1370;-62
2024/03/10 00:18:34;;;;;;;10.53;6.63;;;;;;;;;;702056;28;872;-64
2024/03/10 00:18:54;;;;;;;10.13;6.32;;;;;;;;;;701850;28;824;-62
2024/03/10 00:19:14;;;;;;;10.57;6.93;;;;;;;;;;700383;28;4538;-63
2024/03/10 00:19:35;;;;;;;10.27;6.80;;;;;;;;;;701605;28;778;-63
2024/03/10 00:19:55;;;;;;;11.18;6.72;;;;;;;;;;701811;28;1371;-62
2024/03/10 00:20:15;;;;;;;11.47;6.80;;;;;;;;;;701442;28;1882;-64
2024/03/10 00:20:35;;;;;;;10.07;6.67;;;;;;;;;;702667;28;963;-64
2024/03/10 00:20:56;;;;;;;10.10;6.55;;;;;;;;;;701269;27;1876;-63
2024/03/10 00:21:16;;;;;;;9.43;6.30;;;;;;;;;;703293;28;920;-63
2024/03/10 00:21:37;;;;;;;10.77;6.80;;;;;;;;;;703744;28;1017;-64
2024/03/10 00:21:57;;;;;;;10.67;6.73;;;;;;;;;;702235;28;1767;-62
2024/03/10 00:22:18;;;;;;;10.50;6.68;;;;;;;;;;702606;28;4329;-63
2024/03/10 00:22:39;;;;;;;10.90;6.63;;;;;;;;;;701819;28;3890;-63
2024/03/10 00:22:59;;;;;;;10.68;6.60;;;;;;;;;;701530;28;1748;-64
2024/03/10 00:23:19;;;;;;;9.98;6.38;;;;;;;;;;701416;28;1460;-64
2024/03/10 00:23:40;;;;;;;10.17;6.50;;;;;;;;;;702884;28;799;-65
2024/03/10 00:24:01;;;;;;;10.73;6.82;;;;;;;;;;700908;28;1943;-63
2024/03/10 00:24:21;;;;;;;10.60;6.65;;;;;;;;;;701506;28;992;-64
2024/03/10 00:24:42;;;;;;;10.02;6.38;;;;;;;;;;702071;28;1909;-64
2024/03/10 00:25:03;;;;;;;10.53;6.40;;;;;;;;;;700991;27;4714;-64
2024/03/10 00:25:23;;;;;;;10.10;6.60;;;;;;;;;;701362;28;983;-64
2024/03/10 00:25:44;;;;;;;9.97;6.43;;;;;;;;;;703289;28;952;-64
2024/03/10 00:26:07;;;;;;;9.35;6.28;;;;;;;;;;701599;28;2212;-64
2024/03/10 00:26:27;;;;;;;9.73;6.30;;;;;;;;;;701424;28;956;-63
2024/03/10 00:26:47;;;;;;;9.80;6.10;;;;;;;;;;701679;28;1297;-63
2024/03/10 00:27:07;;;;;;;10.33;6.30;;;;;;;;;;701256;28;1442;-63
2024/03/10 00:27:28;;;;;;;9.30;6.20;;;;;;;;;;698770;28;897;-64
2024/03/10 00:27:49;;;;;;;10.00;6.67;;;;;;;;;;696907;28;941;-63
2024/03/10 00:28:11;;;;;;;9.35;6.07;;;;;;;;;;693031;28;4294;-63
2024/03/10 00:28:34;;;;;;;11.88;6.30;;;;;;;;;;694222;28;979;-63
2024/03/10 00:28:54;;;;;;;12.15;6.50;;;;;;;;;;694821;28;947;-62
2024/03/10 00:29:14;;;;;;;10.45;6.60;;;;;;;;;;696869;28;2278;-63
2024/03/10 00:29:35;;;;;;;11.10;6.40;;;;;;;;;;695804;28;852;-61
2024/03/10 00:29:55;;;;;;;9.97;6.30;;;;;;;;;;696926;28;909;-63
2024/03/10 00:30:15;;;;;;;9.90;6.60;;;;;;;;;;695379;28;1665;-63
2024/03/10 00:30:35;;;;;;;10.07;6.53;;;;;;;;;;691981;28;1507;-63
2024/03/10 00:30:56;;;;;;;10.70;6.70;;;;;;;;;;690450;28;1635;-63
2024/03/10 00:31:16;;;;;;;10.98;6.90;;;;;;;;;;692071;28;4359;-62
2024/03/10 00:31:37;;;;;;;10.80;6.67;;;;;;;;;;692023;28;910;-63
2024/03/10 00:31:58;;;;;;;10.85;6.30;;;;;;;;;;692708;28;2137;-62
2024/03/10 00:32:18;;;;;;;11.88;6.90;;;;;;;;;;695106;28;801;-63
2024/03/10 00:32:38;;;;;;;10.27;6.63;;;;;;;;;;696346;28;865;-63
2024/03/10 00:32:58;;;;;;;9.83;6.27;;;;;;;;;;697440;28;1630;-63
2024/03/10 00:33:19;;;;;;;10.85;6.88;;;;;;;;;;698791;28;845;-63
2024/03/10 00:33:39;;;;;;;9.50;6.47;;;;;;;;;;699168;28;1254;-64
2024/03/10 00:34:00;;;;;;;10.20;6.45;;;;;;;;;;694970;28;887;-63
2024/03/10 00:34:20;;;;;;;9.93;6.33;;;;;;;;;;696703;28;4246;-62
2024/03/10 00:34:42;;;;;;;9.97;6.13;;;;;;;;;;698716;28;936;-63
2024/03/10 00:35:05;;;;;;;10.68;6.25;;;;;;;;;;697866;28;2412;-63
2024/03/10 00:35:25;;;;;;;10.65;7.13;;;;;;;;;;696550;28;1824;-64
2024/03/10 00:35:47;;;;;;;10.00;6.25;;;;;;;;;;693689;28;924;-63
2024/03/10 00:36:07;;;;;;;10.88;6.55;;;;;;;;;;695878;28;1043;-63
2024/03/10 00:36:27;;;;;;;11.67;6.63;;;;;;;;;;696032;28;962;-63
2024/03/10 00:36:48;;;;;;;9.90;6.30;;;;;;;;;;695757;28;857;-63
2024/03/10 00:37:08;;;;;;;10.50;6.50;;;;;;;;;;697186;28;4572;-62
2024/03/10 00:37:29;;;;;;;11.30;6.70;;;;;;;;;;698476;28;982;-63
2024/03/10 00:37:49;;;;;;;11.43;6.50;;;;;;;;;;699059;28;963;-62
2024/03/10 00:38:09;;;;;;;10.48;6.50;;;;;;;;;;697298;28;1929;-63
2024/03/10 00:38:29;;;;;;;10.30;6.40;;;;;;;;;;698266;28;936;-63
2024/03/10 00:38:51;;;;;;;9.77;6.00;;;;;;;;;;698615;28;1208;-62
2024/03/10 00:39:11;;;;;;;10.52;6.40;;;;;;;;;;699851;28;1763;-62
2024/03/10 00:39:32;;;;;;;10.70;6.60;;;;;;;;;;700289;28;1179;-64
2024/03/10 00:39:53;;;;;;;9.15;6.28;;;;;;;;;;699422;28;916;-62
2024/03/10 00:40:15;;;;;;;10.53;6.50;;;;;;;;;;698049;28;4379;-66
2024/03/10 00:40:37;;;;;;;10.93;6.30;;;;;;;;;;699090;28;1916;-60
2024/03/10 00:40:57;;;;;;;9.48;6.68;;;;;;;;;;696446;28;2364;-61
2024/03/10 00:41:18;;;;;;;9.57;6.43;;;;;;;;;;697208;28;913;-63
2024/03/10 00:41:39;;;;;;;9.83;6.40;;;;;;;;;;698050;28;861;-63
2024/03/10 00:42:00;;;;;;;10.05;6.30;;;;;;;;;;694955;28;1799;-63
2024/03/10 00:42:23;;;;;;;10.27;6.37;;;;;;;;;;697864;28;952;-63
2024/03/10 00:42:43;;;;;;;10.15;6.68;;;;;;;;;;697817;28;923;-62
2024/03/10 00:43:03;;;;;;;9.70;6.53;;;;;;;;;;693407;28;4658;-63
2024/03/10 00:43:24;;;;;;;9.93;6.43;;;;;;;;;;697886;28;946;-63
2024/03/10 00:43:44;;;;;;;10.40;6.57;;;;;;;;;;698261;28;1231;-64
2024/03/10 00:44:04;;;;;;;10.07;6.53;;;;;;;;;;698188;28;1577;-62
2024/03/10 00:44:24;;;;;;;9.43;6.20;;;;;;;;;;698205;28;959;-63
2024/03/10 00:44:45;;;;;;;10.73;6.50;;;;;;;;;;698893;28;1922;-64
2024/03/10 00:45:06;;;;;;;10.85;6.68;;;;;;;;;;697988;28;1957;-63
2024/03/10 00:45:27;;;;;;;10.48;6.57;;;;;;;;;;699978;28;943;-63
2024/03/10 00:45:49;;;;;;;12.10;6.68;;;;;;;;;;700103;28;837;-63
2024/03/10 00:46:09;;;;;;;11.52;6.53;;;;;;;;;;697407;27;4894;-61
2024/03/10 00:46:31;;;;;;;10.95;6.65;;;;;;;;;;698883;28;806;-63
2024/03/10 00:46:51;;;;;;;10.35;6.57;;;;;;;;;;699196;28;979;-63
2024/03/10 00:47:11;;;;;;;11.20;6.60;;;;;;;;;;698235;28;1709;-64
2024/03/10 00:47:31;;;;;;;10.37;6.33;;;;;;;;;;698734;28;1028;-64
2024/03/10 00:47:54;;;;;;;9.65;6.57;;;;;;;;;;698748;28;832;-63
2024/03/10 00:48:15;;;;;;;9.38;6.22;;;;;;;;;;697597;28;1926;-64
2024/03/10 00:48:35;;;;;;;10.57;6.53;;;;;;;;;;700368;28;897;-63
2024/03/10 00:48:56;;;;;;;10.50;6.60;;;;;;;;;;700350;28;1239;-62
2024/03/10 00:49:17;;;;;;;10.20;6.67;;;;;;;;;;698659;27;4405;-63
2024/03/10 00:49:37;;;;;;;10.25;6.50;;;;;;;;;;699389;28;1022;-63
2024/03/10 00:49:58;;;;;;;9.87;6.40;;;;;;;;;;698274;28;957;-62
2024/03/10 00:50:19;;;;;;;10.43;6.20;;;;;;;;;;699701;28;919;-62
2024/03/10 00:50:40;;;;;;;10.18;6.20;;;;;;;;;;699737;28;1246;-63
2024/03/10 00:51:00;;;;;;;10.70;6.60;;;;;;;;;;698552;28;1524;-64
2024/03/10 00:51:21;;;;;;;9.40;6.40;;;;;;;;;;697940;28;900;-64
2024/03/10 00:51:42;;;;;;;9.02;6.25;;;;;;;;;;699344;28;1022;-64
2024/03/10 00:52:02;;;;;;;9.90;6.60;;;;;;;;;;698378;28;4425;-63
2024/03/10 00:52:22;;;;;;;10.27;6.40;;;;;;;;;;699976;28;789;-63
2024/03/10 00:52:43;;;;;;;9.73;6.30;;;;;;;;;;699200;28;997;-63
2024/03/10 00:53:03;;;;;;;10.23;6.40;;;;;;;;;;698530;28;2459;-64
2024/03/10 00:53:23;;;;;;;10.37;6.43;;;;;;;;;;698626;28;869;-64
2024/03/10 00:53:43;;;;;;;9.87;6.67;;;;;;;;;;698420;28;777;-64
2024/03/10 00:54:04;;;;;;;9.57;6.20;;;;;;;;;;698872;28;2373;-63
2024/03/10 00:54:24;;;;;;;9.20;6.00;;;;;;;;;;697493;28;1332;-63
2024/03/10 00:54:44;;;;;;;9.40;6.40;;;;;;;;;;697817;28;788;-63
2024/03/10 00:55:05;;;;;;;10.33;6.70;;;;;;;;;;696109;28;4507;-63
2024/03/10 00:55:26;;;;;;;10.88;6.50;;;;;;;;;;700660;28;769;-64
2024/03/10 00:55:47;;;;;;;10.90;6.70;;;;;;;;;;700563;28;920;-64
2024/03/10 00:56:09;;;;;;;10.45;6.72;;;;;;;;;;697738;28;4786;-65
2024/03/10 00:56:29;;;;;;;10.23;6.05;;;;;;;;;;700326;28;967;-66
2024/03/10 00:56:50;;;;;;;9.40;6.10;;;;;;;;;;699122;28;820;-64
2024/03/10 00:57:10;;;;;;;9.80;6.47;;;;;;;;;;698132;28;1908;-64
2024/03/10 00:57:31;;;;;;;10.17;6.33;;;;;;;;;;698340;28;844;-63
2024/03/10 00:57:51;;;;;;;9.70;6.07;;;;;;;;;;699614;28;1236;-64
2024/03/10 00:58:12;;;;;;;9.07;6.28;;;;;;;;;;698634;28;4343;-64
2024/03/10 00:58:32;;;;;;;9.90;6.33;;;;;;;;;;700658;28;875;-64
2024/03/10 00:58:53;;;;;;;10.60;6.80;;;;;;;;;;700273;28;932;-64
2024/03/10 00:59:13;;;;;;;10.15;6.43;;;;;;;;;;698121;28;1808;-64
2024/03/10 00:59:33;;;;;;;10.57;6.60;;;;;;;;;;696592;28;1326;-64
2024/03/10 00:59:53;;;;;;;10.77;6.43;;;;;;;;;;696112;28;766;-65
2024/03/10 01:00:14;;;;;;;10.15;6.22;;;;;;;;;;694056;28;2018;-65
2024/03/10 01:00:34;;;;;;;9.33;6.43;;;;;;;;;;695179;28;821;-64
2024/03/10 01:00:54;;;;;;;10.40;6.70;;;;;;;;;;696856;28;943;-65
2024/03/10 01:01:16;;;;;;;10.30;6.37;;;;;;;;;;695280;28;4491;-64
2024/03/10 01:01:39;;;;;;;9.93;6.22;;;;;;;;;;700404;28;841;-65
2024/03/10 01:01:59;;;;;;;10.25;6.55;;;;;;;;;;698810;28;1784;-63
2024/03/10 01:02:20;;;;;;;8.90;6.22;;;;;;;;;;699427;28;841;-64
2024/03/10 01:02:40;;;;;;;9.40;6.53;;;;;;;;;;698661;28;1010;-64
2024/03/10 01:03:01;;;;;;;9.73;6.50;;;;;;;;;;698664;28;1631;-64
2024/03/10 01:03:22;;;;;;;9.30;6.20;;;;;;;;;;698823;28;887;-64
2024/03/10 01:03:42;;;;;;;10.02;6.45;;;;;;;;;;698966;28;1010;-65
2024/03/10 01:04:03;;;;;;;10.53;6.30;;;;;;;;;;697431;27;4504;-65
2024/03/10 01:04:23;;;;;;;11.52;6.63;;;;;;;;;;700245;28;993;-65
2024/03/10 01:04:43;;;;;;;10.63;6.50;;;;;;;;;;698608;28;1906;-64
2024/03/10 01:05:04;;;;;;;10.63;6.13;;;;;;;;;;698063;28;1742;-65
2024/03/10 01:05:25;;;;;;;10.40;6.47;;;;;;;;;;700259;28;1213;-63
2024/03/10 01:05:46;;;;;;;10.27;6.78;;;;;;;;;;700378;28;1039;-64
2024/03/10 01:06:07;;;;;;;10.48;6.63;;;;;;;;;;698715;28;1461;-65
2024/03/10 01:06:28;;;;;;;11.13;7.00;;;;;;;;;;699764;28;909;-65
2024/03/10 01:06:50;;;;;;;11.15;6.90;;;;;;;;;;699287;28;840;-64
2024/03/10 01:07:12;;;;;;;10.15;6.57;;;;;;;;;;695895;28;4599;-65
2024/03/10 01:07:33;;;;;;;9.68;6.60;;;;;;;;;;699861;28;876;-66
2024/03/10 01:07:54;;;;;;;9.77;6.73;;;;;;;;;;699442;28;860;-64
2024/03/10 01:08:14;;;;;;;8.93;6.10;;;;;;;;;;696862;28;1703;-64
2024/03/10 01:08:35;;;;;;;10.27;6.57;;;;;;;;;;698094;28;797;-64
2024/03/10 01:08:56;;;;;;;9.50;6.30;;;;;;;;;;699560;28;806;-64
2024/03/10 01:09:18;;;;;;;9.52;6.40;;;;;;;;;;699178;28;2159;-63
2024/03/10 01:09:38;;;;;;;9.82;6.50;;;;;;;;;;698932;28;971;-64
2024/03/10 01:09:59;;;;;;;9.40;6.33;;;;;;;;;;699002;28;2236;-64
2024/03/10 01:10:19;;;;;;;10.20;6.30;;;;;;;;;;698549;28;4409;-65
2024/03/10 01:10:40;;;;;;;10.38;6.18;;;;;;;;;;699350;28;1010;-64
2024/03/10 01:11:00;;;;;;;10.20;6.80;;;;;;;;;;698569;28;2269;-64
2024/03/10 01:11:21;;;;;;;10.15;6.60;;;;;;;;;;699553;28;955;-64
2024/03/10 01:11:42;;;;;;;9.47;6.47;;;;;;;;;;699675;28;947;-64
2024/03/10 01:12:03;;;;;;;8.95;5.97;;;;;;;;;;698426;28;2362;-64
2024/03/10 01:12:23;;;;;;;9.88;6.25;;;;;;;;;;699600;28;860;-64
2024/03/10 01:12:43;;;;;;;9.77;6.43;;;;;;;;;;696811;28;1586;-64
2024/03/10 01:13:04;;;;;;;9.57;6.33;;;;;;;;;;695167;28;4393;-63
2024/03/10 01:13:24;;;;;;;9.90;6.28;;;;;;;;;;695084;28;1111;-64
2024/03/10 01:13:46;;;;;;;9.90;6.13;;;;;;;;;;695144;28;925;-64
2024/03/10 01:14:07;;;;;;;8.90;6.03;;;;;;;;;;693183;28;2313;-64
2024/03/10 01:14:27;;;;;;;9.73;6.20;;;;;;;;;;698134;28;869;-64
2024/03/10 01:14:47;;;;;;;9.87;6.30;;;;;;;;;;700344;28;1029;-64
2024/03/10 01:15:08;;;;;;;10.93;6.73;;;;;;;;;;697768;28;1227;-65
2024/03/10 01:15:28;;;;;;;9.38;6.45;;;;;;;;;;699369;28;935;-64
2024/03/10 01:15:48;;;;;;;9.67;6.17;;;;;;;;;;698876;28;956;-65
2024/03/10 01:16:09;;;;;;;8.55;5.85;;;;;;;;;;697665;28;4292;-64
2024/03/10 01:16:29;;;;;;;10.03;6.20;;;;;;;;;;700098;28;1116;-63
2024/03/10 01:16:50;;;;;;;10.15;6.43;;;;;;;;;;698510;28;880;-64
2024/03/10 01:17:10;;;;;;;9.90;6.17;;;;;;;;;;698033;28;2569;-64
2024/03/10 01:17:31;;;;;;;10.02;6.20;;;;;;;;;;698558;28;900;-64
2024/03/10 01:17:51;;;;;;;9.73;6.28;;;;;;;;;;700884;28;959;-63
2024/03/10 01:18:12;;;;;;;9.80;6.50;;;;;;;;;;698157;28;2335;-64
2024/03/10 01:18:32;;;;;;;9.73;6.13;;;;;;;;;;699656;28;1198;-64
2024/03/10 01:18:52;;;;;;;9.97;6.03;;;;;;;;;;698177;28;3859;-62
2024/03/10 01:19:13;;;;;;;9.13;5.73;;;;;;;;;;698918;28;5260;-64
2024/03/10 01:19:34;;;;;;;8.50;5.78;;;;;;;;;;699504;28;884;-64
2024/03/10 01:19:54;;;;;;;9.18;6.13;;;;;;;;;;700360;28;1139;-64
2024/03/10 01:20:14;;;;;;;10.53;6.67;;;;;;;;;;697080;28;930;-64
2024/03/10 01:20:34;;;;;;;10.13;6.33;;;;;;;;;;698997;28;801;-64
2024/03/10 01:20:55;;;;;;;10.45;6.35;;;;;;;;;;699387;28;860;-64
2024/03/10 01:21:15;;;;;;;9.67;6.20;;;;;;;;;;698158;28;2713;-65
2024/03/10 01:21:35;;;;;;;9.83;6.13;;;;;;;;;;700194;28;1048;-64
2024/03/10 01:21:58;;;;;;;9.07;5.68;;;;;;;;;;699567;28;833;-64
2024/03/10 01:22:18;;;;;;;10.13;6.10;;;;;;;;;;697842;28;4512;-63
2024/03/10 01:22:38;;;;;;;9.53;6.10;;;;;;;;;;698915;28;840;-63
2024/03/10 01:22:59;;;;;;;9.40;6.03;;;;;;;;;;699705;28;841;-64
2024/03/10 01:23:19;;;;;;;9.17;6.13;;;;;;;;;;698633;28;2440;-64
2024/03/10 01:23:40;;;;;;;8.98;6.18;;;;;;;;;;699029;28;943;-64
2024/03/10 01:24:00;;;;;;;8.63;5.97;;;;;;;;;;698161;28;1188;-63
2024/03/10 01:24:21;;;;;;;10.10;5.88;;;;;;;;;;699455;28;943;-64
2024/03/10 01:24:42;;;;;;;10.68;6.25;;;;;;;;;;698919;28;1983;-64
2024/03/10 01:25:04;;;;;;;8.93;5.90;;;;;;;;;;696854;27;4382;-64
2024/03/10 01:25:24;;;;;;;9.10;6.00;;;;;;;;;;699837;28;904;-64
2024/03/10 01:25:45;;;;;;;9.33;5.80;;;;;;;;;;699565;28;883;-64
2024/03/10 01:26:05;;;;;;;9.50;6.05;;;;;;;;;;698739;28;1796;-64
2024/03/10 01:26:26;;;;;;;9.40;6.23;;;;;;;;;;699376;28;984;-64
2024/03/10 01:26:48;;;;;;;9.23;6.35;;;;;;;;;;699480;28;939;-63
2024/03/10 01:27:08;;;;;;;9.50;6.28;;;;;;;;;;697904;28;2329;-65
2024/03/10 01:27:28;;;;;;;8.60;5.93;;;;;;;;;;699331;28;924;-63
2024/03/10 01:27:49;;;;;;;8.97;6.00;;;;;;;;;;699377;28;904;-64
2024/03/10 01:28:09;;;;;;;9.67;6.30;;;;;;;;;;696388;28;4255;-65
2024/03/10 01:28:29;;;;;;;10.00;6.40;;;;;;;;;;697742;28;1221;-64
2024/03/10 01:28:50;;;;;;;9.27;5.80;;;;;;;;;;697849;28;900;-64
2024/03/10 01:29:10;;;;;;;8.27;5.90;;;;;;;;;;695450;28;1450;-64
2024/03/10 01:29:30;;;;;;;8.70;6.03;;;;;;;;;;697926;28;901;-63
2024/03/10 01:29:51;;;;;;;8.82;5.93;;;;;;;;;;698149;28;849;-64
2024/03/10 01:30:11;;;;;;;10.10;6.33;;;;;;;;;;698014;28;1745;-64
2024/03/10 01:30:31;;;;;;;9.90;6.10;;;;;;;;;;696028;28;893;-64
2024/03/10 01:30:52;;;;;;;10.10;6.20;;;;;;;;;;696094;28;889;-64
2024/03/10 01:31:12;;;;;;;8.90;5.83;;;;;;;;;;698039;28;4598;-64
2024/03/10 01:31:32;;;;;;;10.52;6.38;;;;;;;;;;700332;28;900;-64
2024/03/10 01:31:52;;;;;;;10.20;6.10;;;;;;;;;;702838;28;1014;-65
2024/03/10 01:32:13;;;;;;;9.50;5.93;;;;;;;;;;701086;28;1310;-64
2024/03/10 01:32:33;;;;;;;10.00;6.03;;;;;;;;;;701846;28;959;-64
2024/03/10 01:32:54;;;;;;;9.03;5.70;;;;;;;;;;701567;28;908;-64
2024/03/10 01:33:14;;;;;;;9.98;5.97;;;;;;;;;;700921;28;1886;-64
2024/03/10 01:33:35;;;;;;;10.13;5.90;;;;;;;;;;702397;28;1025;-63
2024/03/10 01:33:55;;;;;;;9.40;5.80;;;;;;;;;;702128;28;869;-64
2024/03/10 01:34:16;;;;;;;9.43;6.03;;;;;;;;;;700879;27;5455;-64
2024/03/10 01:34:36;;;;;;;8.75;5.95;;;;;;;;;;700547;28;1209;-64
2024/03/10 01:34:56;;;;;;;8.87;5.90;;;;;;;;;;700461;28;928;-64
2024/03/10 01:35:17;;;;;;;9.63;6.10;;;;;;;;;;699295;28;1909;-65
2024/03/10 01:35:39;;;;;;;10.65;6.20;;;;;;;;;;702274;28;2071;-62
2024/03/10 01:36:00;;;;;;;8.85;6.05;;;;;;;;;;702535;28;1010;-62
2024/03/10 01:36:21;;;;;;;9.40;6.00;;;;;;;;;;702457;28;1238;-63
2024/03/10 01:36:41;;;;;;;9.60;5.93;;;;;;;;;;701894;28;825;-64
2024/03/10 01:37:01;;;;;;;8.53;5.80;;;;;;;;;;700872;28;4491;-63
2024/03/10 01:37:22;;;;;;;8.85;5.85;;;;;;;;;;700423;28;860;-62
2024/03/10 01:37:42;;;;;;;9.03;5.63;;;;;;;;;;696594;28;892;-64
2024/03/10 01:38:02;;;;;;;9.07;5.70;;;;;;;;;;696593;28;2327;-64
2024/03/10 01:38:23;;;;;;;10.37;6.03;;;;;;;;;;697701;28;955;-64
2024/03/10 01:38:43;;;;;;;9.17;5.93;;;;;;;;;;696620;28;1046;-63
2024/03/10 01:39:03;;;;;;;9.38;5.90;;;;;;;;;;696238;28;1825;-65
2024/03/10 01:39:24;;;;;;;8.93;5.80;;;;;;;;;;697149;28;876;-64
2024/03/10 01:39:44;;;;;;;8.70;5.82;;;;;;;;;;700007;28;1303;-64
2024/03/10 01:40:06;;;;;;;9.77;6.10;;;;;;;;;;697631;28;4242;-64
2024/03/10 01:40:26;;;;;;;9.43;5.72;;;;;;;;;;699701;28;1329;-64
2024/03/10 01:40:46;;;;;;;9.70;5.88;;;;;;;;;;700070;28;975;-65
2024/03/10 01:41:07;;;;;;;8.93;5.90;;;;;;;;;;698112;28;1870;-64
2024/03/10 01:41:27;;;;;;;9.07;5.88;;;;;;;;;;699157;28;1613;-63
2024/03/10 01:41:47;;;;;;;9.20;6.10;;;;;;;;;;699619;28;952;-64
2024/03/10 01:42:07;;;;;;;8.83;5.73;;;;;;;;;;698662;28;2332;-64
2024/03/10 01:42:28;;;;;;;9.30;5.97;;;;;;;;;;700063;28;979;-64
2024/03/10 01:42:54;;;;;;;8.80;5.83;;;;;;;;;;700157;28;856;-64
2024/03/10 01:43:14;;;;;;;8.75;6.07;;;;;;;;;;697933;28;4531;-63
2024/03/10 01:43:35;;;;;;;9.83;6.10;;;;;;;;;;699948;28;810;-64
2024/03/10 01:43:55;;;;;;;13.20;6.50;;;;;;;;;;699916;28;935;-64
2024/03/10 01:44:15;;;;;;;13.00;6.63;;;;;;;;;;698909;28;972;-64
2024/03/10 01:44:35;;;;;;;9.52;5.95;;;;;;;;;;700533;28;951;-63
2024/03/10 01:44:56;;;;;;;9.30;5.80;;;;;;;;;;697999;28;1945;-63
2024/03/10 01:45:16;;;;;;;9.13;5.50;;;;;;;;;;696980;28;2160;-65
2024/03/10 01:45:36;;;;;;;8.77;5.75;;;;;;;;;;696207;28;1161;-64
2024/03/10 01:46:06;;;;;;;9.63;5.87;;;;;;;;;;695881;28;947;-65
2024/03/10 01:46:27;;;;;;;9.95;6.15;;;;;;;;;;696523;28;4847;-64
2024/03/10 01:46:47;;;;;;;8.85;5.82;;;;;;;;;;697357;28;981;-64
2024/03/10 01:47:08;;;;;;;9.33;5.93;;;;;;;;;;697884;28;1896;-65
2024/03/10 01:47:28;;;;;;;10.52;5.90;;;;;;;;;;699674;28;1007;-65
2024/03/10 01:47:50;;;;;;;10.53;5.80;;;;;;;;;;699804;28;924;-65
2024/03/10 01:48:10;;;;;;;9.68;5.72;;;;;;;;;;698689;28;2429;-64
2024/03/10 01:48:32;;;;;;;9.20;5.70;;;;;;;;;;698386;28;789;-63
2024/03/10 01:48:53;;;;;;;10.23;6.00;;;;;;;;;;698446;28;994;-64
2024/03/10 01:49:13;;;;;;;9.27;5.68;;;;;;;;;;697083;28;4523;-64
2024/03/10 01:49:34;;;;;;;8.67;5.40;;;;;;;;;;699001;28;973;-64
2024/03/10 01:49:54;;;;;;;8.77;5.30;;;;;;;;;;698941;28;912;-64
2024/03/10 01:50:15;;;;;;;8.20;5.60;;;;;;;;;;698960;28;2063;-64
2024/03/10 01:50:35;;;;;;;8.40;5.87;;;;;;;;;;699800;28;995;-61
2024/03/10 01:50:57;;;;;;;8.50;5.60;;;;;;;;;;700245;28;765;-63
2024/03/10 01:51:18;;;;;;;8.88;5.78;;;;;;;;;;698518;28;936;-64
2024/03/10 01:51:39;;;;;;;8.83;5.80;;;;;;;;;;700469;28;923;-64
2024/03/10 01:51:59;;;;;;;8.27;5.60;;;;;;;;;;700386;28;856;-65
2024/03/10 01:52:19;;;;;;;9.20;5.97;;;;;;;;;;698541;28;4660;-64
2024/03/10 01:52:40;;;;;;;9.10;5.70;;;;;;;;;;700418;28;1317;-63
2024/03/10 01:53:01;;;;;;;8.00;5.47;;;;;;;;;;698976;28;1077;-61
2024/03/10 01:53:21;;;;;;;8.47;5.77;;;;;;;;;;700288;28;948;-63
2024/03/10 01:53:42;;;;;;;8.98;5.85;;;;;;;;;;699308;28;900;-64
2024/03/10 01:54:03;;;;;;;8.88;6.13;;;;;;;;;;698479;28;2281;-64
2024/03/10 01:54:28;;;;;;;9.13;5.80;;;;;;;;;;700741;28;1387;-63
2024/03/10 01:54:48;;;;;;;8.90;5.53;;;;;;;;;;699390;28;1023;-63
2024/03/10 01:55:11;;;;;;;8.70;5.53;;;;;;;;;;699016;28;4350;-65
2024/03/10 01:55:33;;;;;;;9.02;5.45;;;;;;;;;;701307;28;1007;-65
2024/03/10 01:55:54;;;;;;;9.60;5.60;;;;;;;;;;700919;28;803;-63
2024/03/10 01:56:15;;;;;;;8.85;5.63;;;;;;;;;;699881;28;1973;-64
2024/03/10 01:56:35;;;;;;;8.65;5.55;;;;;;;;;;699973;28;1084;-64
2024/03/10 01:56:56;;;;;;;8.88;5.68;;;;;;;;;;700262;28;790;-64
2024/03/10 01:57:17;;;;;;;9.10;5.83;;;;;;;;;;698760;28;2488;-64
2024/03/10 01:57:38;;;;;;;8.68;5.65;;;;;;;;;;699565;28;919;-64
2024/03/10 01:57:58;;;;;;;8.85;5.95;;;;;;;;;;696813;28;1147;-65
2024/03/10 01:58:18;;;;;;;9.07;5.90;;;;;;;;;;695776;28;4471;-65
2024/03/10 01:58:40;;;;;;;9.00;5.60;;;;;;;;;;697932;28;908;-65
2024/03/10 01:59:01;;;;;;;8.10;5.68;;;;;;;;;;698244;28;837;-64
2024/03/10 01:59:21;;;;;;;8.43;5.73;;;;;;;;;;699094;28;1041;-64
2024/03/10 01:59:42;;;;;;;9.35;6.05;;;;;;;;;;695545;28;1231;-64
2024/03/10 02:00:05;;;;;;;8.73;5.57;;;;;;;;;;693592;28;2090;-62
2024/03/10 02:00:32;;;;;;;8.32;5.68;;;;;;;;;;693610;28;652;-62
2024/03/10 02:00:52;;;;;;;8.15;5.10;;;;;;;;;;693603;28;818;-64
2024/03/10 02:01:13;;;;;;;8.37;5.30;;;;;;;;;;692374;28;4311;-65
2024/03/10 02:01:35;;;;;;;8.40;5.68;;;;;;;;;;697762;28;1146;-65
2024/03/10 02:01:56;;;;;;;9.52;5.88;;;;;;;;;;700607;28;912;-64
2024/03/10 02:02:16;;;;;;;9.13;5.90;;;;;;;;;;698143;28;1855;-64
2024/03/10 02:02:37;;;;;;;9.00;5.90;;;;;;;;;;699126;28;3713;-65
2024/03/10 02:02:58;;;;;;;8.63;5.63;;;;;;;;;;699546;28;1153;-64
2024/03/10 02:03:18;;;;;;;8.57;5.70;;;;;;;;;;699218;28;2273;-65
2024/03/10 02:03:38;;;;;;;9.53;5.63;;;;;;;;;;701101;28;922;-63
2024/03/10 02:03:59;;;;;;;9.77;5.80;;;;;;;;;;701379;28;872;-65
2024/03/10 02:04:20;;;;;;;8.37;5.43;;;;;;;;;;698877;28;4354;-64
2024/03/10 02:04:40;;;;;;;9.02;5.95;;;;;;;;;;700809;28;1292;-64
2024/03/10 02:05:00;;;;;;;8.73;5.70;;;;;;;;;;701039;28;1926;-63
2024/03/10 02:05:22;;;;;;;8.00;5.40;;;;;;;;;;700284;28;2151;-64
2024/03/10 02:05:46;;;;;;;8.18;5.68;;;;;;;;;;703620;28;990;-64
2024/03/10 02:06:09;;;;;;;8.70;5.82;;;;;;;;;;700972;28;2311;-64
2024/03/10 02:06:30;;;;;;;9.55;5.70;;;;;;;;;;698746;28;936;-64
2024/03/10 02:06:52;;;;;;;9.00;5.27;;;;;;;;;;699219;28;865;-65
2024/03/10 02:07:12;;;;;;;8.73;5.55;;;;;;;;;;699801;27;4721;-63
2024/03/10 02:07:33;;;;;;;8.40;5.43;;;;;;;;;;702673;28;916;-65
2024/03/10 02:07:56;;;;;;;9.20;5.75;;;;;;;;;;702754;28;998;-63
2024/03/10 02:08:17;;;;;;;9.07;5.80;;;;;;;;;;701946;28;1786;-65
2024/03/10 02:08:38;;;;;;;8.95;5.80;;;;;;;;;;702266;28;1253;-63